Orange, Texas
Current Conditions -  °F | °C
As of 12:35 AM on Wednesday 28 Jan 2015 (Local Time) from KORG Reporting Station
Clear Clear  
Wind Chill: 46°   Ceiling: Unl
Heat Index: 46°   Visibility: 10mi
Dew Point: 45°   Wind: 0mph
Humidity: 99%   Direction: NA
Pressure: 30.18"   Gusts: NA
Location:  30.09°N, 93.74°W
Report Text: KORG 280635Z AUTO 00000KT 10SM CLR 08/07 A3018 RMK AO2 T00760074
Loading
Personal Weather Stations






























Interactive Weather Map New forecast layout! Learn more

10-Day Weather Forecast

Advertisements
Track Severe Weather on mobile